createdAt,value
2018-09-30T00:00:18.251Z,2.30
2018-09-30T00:02:46.627Z,2.47
2018-09-30T00:05:15.222Z,1.90
2018-09-30T00:07:43.914Z,2.03
2018-09-30T00:10:12.599Z,1.90
2018-09-30T00:12:41.295Z,2.30
2018-09-30T00:15:10.018Z,1.90
2018-09-30T00:17:38.696Z,1.87
2018-09-30T00:20:07.207Z,1.70
2018-09-30T00:22:35.611Z,2.10
2018-09-30T00:25:09.538Z,2.27
2018-09-30T00:27:37.938Z,2.00
2018-09-30T00:30:06.312Z,2.20
2018-09-30T00:32:34.923Z,2.07
2018-09-30T00:35:03.457Z,2.50
2018-09-30T00:37:31.830Z,2.00
2018-09-30T00:40:00.226Z,1.90
2018-09-30T00:42:28.831Z,1.90
2018-09-30T00:44:57.515Z,2.23
2018-09-30T00:47:25.990Z,2.17
2018-09-30T00:49:54.439Z,1.70
2018-09-30T00:52:22.828Z,1.90
2018-09-30T00:54:51.424Z,1.80
2018-09-30T00:57:19.904Z,2.00
2018-09-30T00:59:48.291Z,1.93
2018-09-30T01:02:16.667Z,2.40
2018-09-30T01:04:45.295Z,1.83
2018-09-30T01:07:14.012Z,1.90
2018-09-30T01:09:42.478Z,1.90
2018-09-30T01:12:10.886Z,1.93
2018-09-30T01:14:39.279Z,1.83
2018-09-30T01:17:07.888Z,1.80
2018-09-30T01:19:36.360Z,1.90
2018-09-30T01:22:04.735Z,1.87
2018-09-30T01:24:33.134Z,2.10
2018-09-30T01:27:01.740Z,1.90
2018-09-30T01:29:30.198Z,2.10
2018-09-30T01:31:58.588Z,1.63
2018-09-30T01:34:26.999Z,1.83
2018-09-30T01:36:55.602Z,1.70
2018-09-30T01:39:24.074Z,1.90
2018-09-30T01:41:52.472Z,1.90
2018-09-30T01:44:20.862Z,1.77
2018-09-30T01:46:49.484Z,1.50
2018-09-30T01:49:17.971Z,1.63
2018-09-30T01:51:50.855Z,1.90
2018-09-30T01:54:19.262Z,1.80
2018-09-30T01:56:47.644Z,1.90
2018-09-30T01:59:16.039Z,2.50
2018-09-30T02:01:44.447Z,2.00
2018-09-30T02:04:12.829Z,2.77
2018-09-30T02:06:41.412Z,1.87
2018-09-30T02:09:09.902Z,2.00
2018-09-30T02:11:38.285Z,1.90
2018-09-30T02:14:06.751Z,1.83
2018-09-30T02:16:35.155Z,1.80
2018-09-30T02:19:03.531Z,1.90
2018-09-30T02:21:31.943Z,1.90
2018-09-30T02:24:00.344Z,2.00
2018-09-30T02:26:28.731Z,1.80
2018-09-30T02:28:57.113Z,1.93
2018-09-30T02:31:25.512Z,1.70
2018-09-30T02:33:53.913Z,1.80
2018-09-30T02:36:22.298Z,2.20
2018-09-30T02:38:50.695Z,1.97
2018-09-30T02:41:19.083Z,2.10
2018-09-30T02:43:47.699Z,2.20
2018-09-30T02:46:16.192Z,1.70
2018-09-30T02:48:44.570Z,1.93
2018-09-30T02:51:12.954Z,1.67
2018-09-30T02:53:41.368Z,2.00
2018-09-30T02:56:09.750Z,2.40
2018-09-30T02:58:38.134Z,1.60
2018-09-30T03:01:06.739Z,2.10
2018-09-30T03:03:35.428Z,1.93
2018-09-30T03:06:03.893Z,2.03
2018-09-30T03:08:37.842Z,1.70
2018-09-30T03:11:06.258Z,2.10
2018-09-30T03:13:34.626Z,1.90
2018-09-30T03:16:03.240Z,1.80
2018-09-30T03:18:31.948Z,2.10
2018-09-30T03:21:00.432Z,2.00
2018-09-30T03:23:28.827Z,2.20
2018-09-30T03:25:57.288Z,1.83
2018-09-30T03:28:25.702Z,2.10
2018-09-30T03:30:54.130Z,1.90
2018-09-30T03:33:22.503Z,2.10
2018-09-30T03:35:50.924Z,1.97
2018-09-30T03:38:19.349Z,1.80
2018-09-30T03:40:47.771Z,1.97
2018-09-30T03:43:16.201Z,1.83
2018-09-30T03:45:44.848Z,2.13
2018-09-30T03:48:13.578Z,1.70
2018-09-30T03:50:42.096Z,2.47
2018-09-30T03:53:10.540Z,1.80
2018-09-30T03:55:38.987Z,2.00
2018-09-30T03:58:07.458Z,4.37
2018-09-30T04:00:36.135Z,2.80
2018-09-30T04:03:04.828Z,4.03
2018-09-30T04:05:33.539Z,4.57
2018-09-30T04:08:02.043Z,3.10
2018-09-30T04:10:30.446Z,4.10
2018-09-30T04:12:58.984Z,2.27
2018-09-30T04:15:27.370Z,4.60
2018-09-30T04:17:55.765Z,4.77
2018-09-30T04:20:24.162Z,3.57
2018-09-30T04:22:52.595Z,3.03
2018-09-30T04:25:21.225Z,2.77
2018-09-30T04:27:49.917Z,2.63
2018-09-30T04:30:18.411Z,2.03
2018-09-30T04:32:46.820Z,2.20
2018-09-30T04:35:15.195Z,2.70
2018-09-30T04:37:43.848Z,2.20
2018-09-30T04:40:12.336Z,2.10
2018-09-30T04:42:40.778Z,2.50
2018-09-30T04:45:09.200Z,2.10
2018-09-30T04:47:37.588Z,2.27
2018-09-30T04:50:06.124Z,2.17
2018-09-30T04:52:34.404Z,2.43
2018-09-30T04:55:02.822Z,2.33
2018-09-30T04:57:31.436Z,2.10
2018-09-30T05:00:00.180Z,2.73
2018-09-30T05:02:28.932Z,2.07
2018-09-30T05:04:57.624Z,2.50
2018-09-30T05:07:26.400Z,2.53
2018-09-30T05:09:54.976Z,2.27
2018-09-30T05:12:23.666Z,2.47
2018-09-30T05:15:06.765Z,2.30
2018-09-30T05:17:35.187Z,2.60
2018-09-30T05:20:03.584Z,2.07
2018-09-30T05:22:32.241Z,2.67
2018-09-30T05:25:00.711Z,2.20
2018-09-30T05:27:29.139Z,2.00
2018-09-30T05:29:57.535Z,2.47
2018-09-30T05:32:26.154Z,2.03
2018-09-30T05:34:54.704Z,2.27
2018-09-30T05:37:23.111Z,2.43
2018-09-30T05:39:51.519Z,2.30
2018-09-30T05:42:19.928Z,2.73
2018-09-30T05:44:48.872Z,2.57
2018-09-30T05:47:17.534Z,3.30
2018-09-30T05:49:46.990Z,3.00
2018-09-30T05:52:15.899Z,3.10
2018-09-30T05:54:44.309Z,2.43
2018-09-30T05:57:12.687Z,2.93
2018-09-30T05:59:41.099Z,2.40
2018-09-30T06:02:09.722Z,3.17
2018-09-30T06:04:38.416Z,3.00
2018-09-30T06:07:07.027Z,3.13
2018-09-30T06:09:35.801Z,2.57
2018-09-30T06:12:04.204Z,2.37
2018-09-30T06:14:32.601Z,2.23
2018-09-30T06:17:01.031Z,2.73
2018-09-30T06:19:29.639Z,2.30
2018-09-30T06:21:58.147Z,3.27
2018-09-30T06:24:26.576Z,2.80
2018-09-30T06:26:55.695Z,3.90
2018-09-30T06:29:24.098Z,3.13
2018-09-30T06:32:02.173Z,5.10
2018-09-30T06:34:30.491Z,7.00
2018-09-30T06:37:03.030Z,5.20
2018-09-30T06:39:31.714Z,10.07
2018-09-30T06:42:03.876Z,6.40
2018-09-30T06:44:32.342Z,11.77
2018-09-30T06:47:00.816Z,5.77
2018-09-30T06:49:29.448Z,9.43
2018-09-30T06:51:58.003Z,4.63
2018-09-30T06:54:26.404Z,3.97
2018-09-30T06:56:55.009Z,2.97
2018-09-30T06:59:26.488Z,2.50
2018-09-30T07:01:55.199Z,2.73
2018-09-30T07:04:23.908Z,2.77
2018-09-30T07:06:52.415Z,3.00
2018-09-30T07:09:20.800Z,2.50
2018-09-30T07:11:49.424Z,2.77
2018-09-30T07:14:17.911Z,2.70
2018-09-30T07:16:46.354Z,2.60
2018-09-30T07:19:14.715Z,2.80
2018-09-30T07:21:43.340Z,2.67
2018-09-30T07:24:11.819Z,3.10
2018-09-30T07:26:40.216Z,3.30
2018-09-30T07:29:08.622Z,3.80
2018-09-30T07:31:37.313Z,3.00
2018-09-30T07:34:06.023Z,2.50
2018-09-30T07:36:34.572Z,2.60
2018-09-30T07:39:04.092Z,3.00
2018-09-30T07:41:37.613Z,2.50
2018-09-30T07:44:06.250Z,2.73
2018-09-30T07:46:34.805Z,2.47
2018-09-30T07:49:03.437Z,2.47
2018-09-30T07:51:32.144Z,3.83
2018-09-30T07:54:00.627Z,3.57
2018-09-30T07:56:29.261Z,2.50
2018-09-30T07:58:57.972Z,2.40
2018-09-30T08:01:26.511Z,2.47
2018-09-30T08:03:54.934Z,2.50
2018-09-30T08:06:23.473Z,2.33
2018-09-30T08:08:52.115Z,2.70
2018-09-30T08:11:20.917Z,2.27
2018-09-30T08:13:49.597Z,2.60
2018-09-30T08:16:18.329Z,2.50
2018-09-30T08:18:46.859Z,2.67
2018-09-30T08:21:15.268Z,2.30
2018-09-30T08:23:43.868Z,2.73
2018-09-30T08:26:12.383Z,2.40
2018-09-30T08:28:41.048Z,2.17
2018-09-30T08:31:09.530Z,2.40
2018-09-30T08:33:38.163Z,2.50
2018-09-30T08:36:07.918Z,2.50
2018-09-30T08:38:36.654Z,2.37
2018-09-30T08:41:10.219Z,2.30
2018-09-30T08:43:39.953Z,2.53
2018-09-30T08:46:08.603Z,2.33
2018-09-30T08:48:37.229Z,2.83
2018-09-30T08:51:06.011Z,2.50
2018-09-30T08:53:34.854Z,2.53
2018-09-30T08:56:03.315Z,2.40
2018-09-30T08:58:31.708Z,2.60
2018-09-30T09:01:00.335Z,5.43
2018-09-30T09:03:28.832Z,2.87
2018-09-30T09:05:57.465Z,2.40
2018-09-30T09:08:26.232Z,2.53
2018-09-30T09:10:54.944Z,2.50
2018-09-30T09:13:23.695Z,2.50
2018-09-30T09:15:52.167Z,2.73
2018-09-30T09:18:20.645Z,2.90
2018-09-30T09:20:49.127Z,2.63
2018-09-30T09:23:17.799Z,2.50
2018-09-30T09:25:47.007Z,2.33
2018-09-30T09:28:15.509Z,2.53
2018-09-30T09:30:54.274Z,2.57
2018-09-30T09:33:23.027Z,3.10
2018-09-30T09:35:51.727Z,2.40
2018-09-30T09:38:20.474Z,2.30
2018-09-30T09:40:49.231Z,2.57
2018-09-30T09:43:17.949Z,3.00
2018-09-30T09:45:46.659Z,2.60
2018-09-30T09:48:15.383Z,2.33
2018-09-30T09:50:44.127Z,3.90
2018-09-30T09:53:12.863Z,2.83
2018-09-30T09:55:41.640Z,2.47
2018-09-30T09:58:10.364Z,2.60
2018-09-30T10:00:43.057Z,2.90
2018-09-30T10:03:12.408Z,2.63
2018-09-30T10:05:40.981Z,6.10
2018-09-30T10:08:09.461Z,2.50
2018-09-30T10:10:38.675Z,2.60
2018-09-30T10:13:07.683Z,2.27
2018-09-30T10:15:36.464Z,2.87
2018-09-30T10:18:05.023Z,7.50
2018-09-30T10:20:33.639Z,2.60
2018-09-30T10:23:02.365Z,2.50
2018-09-30T10:25:30.904Z,2.47
2018-09-30T10:27:59.542Z,2.80
2018-09-30T10:30:28.327Z,3.23
2018-09-30T10:32:56.779Z,2.60
2018-09-30T10:35:25.407Z,3.20
2018-09-30T10:37:54.159Z,2.90
2018-09-30T10:40:22.854Z,2.80
2018-09-30T10:42:51.615Z,2.40
2018-09-30T10:45:20.458Z,2.93
2018-09-30T10:47:49.144Z,2.50
2018-09-30T10:50:17.881Z,2.80
2018-09-30T10:52:46.640Z,2.80
2018-09-30T10:55:15.140Z,2.70
2018-09-30T10:57:43.755Z,2.90
2018-09-30T11:00:12.272Z,2.73
2018-09-30T11:02:40.678Z,2.67
2018-09-30T11:05:09.300Z,2.90
2018-09-30T11:07:38.030Z,2.97
2018-09-30T11:10:06.612Z,2.83
2018-09-30T11:12:35.089Z,2.50
2018-09-30T11:15:03.787Z,2.50
2018-09-30T11:17:32.484Z,2.70
2018-09-30T11:20:01.204Z,2.10
2018-09-30T11:22:29.897Z,2.60
2018-09-30T11:24:58.354Z,2.73
2018-09-30T11:27:27.001Z,2.80
2018-09-30T11:29:55.778Z,2.60
2018-09-30T11:32:24.487Z,2.40
2018-09-30T11:34:53.224Z,2.73
2018-09-30T11:37:22.002Z,2.37
2018-09-30T11:39:50.520Z,2.73
2018-09-30T11:42:18.972Z,3.07
2018-09-30T11:44:47.685Z,2.63
2018-09-30T11:47:16.644Z,2.73
2018-09-30T11:49:45.124Z,2.37
2018-09-30T11:52:13.776Z,2.70
2018-09-30T11:54:42.494Z,2.43
2018-09-30T11:57:10.968Z,3.37
2018-09-30T11:59:39.624Z,2.90
2018-09-30T12:02:08.534Z,3.10
2018-09-30T12:04:37.195Z,2.90
2018-09-30T12:07:06.336Z,3.33
2018-09-30T12:09:35.104Z,2.73
2018-09-30T12:12:18.207Z,3.10
2018-09-30T12:14:46.678Z,2.60
2018-09-30T12:17:15.290Z,2.77
2018-09-30T12:19:43.996Z,3.00
2018-09-30T12:22:12.732Z,2.87
2018-09-30T12:24:41.427Z,3.80
2018-09-30T12:27:10.193Z,2.50
2018-09-30T12:29:38.647Z,2.90
2018-09-30T12:32:07.101Z,2.90
2018-09-30T12:34:35.740Z,2.90
2018-09-30T12:37:04.487Z,3.10
2018-09-30T12:39:33.235Z,3.23
2018-09-30T12:42:01.996Z,3.13
2018-09-30T12:44:30.502Z,2.83
2018-09-30T12:46:59.115Z,2.97
2018-09-30T12:49:27.848Z,3.03
2018-09-30T12:51:56.570Z,3.17
2018-09-30T12:54:25.299Z,2.97
2018-09-30T12:56:54.015Z,2.53
2018-09-30T12:59:22.760Z,2.77
2018-09-30T13:01:51.535Z,2.50
2018-09-30T13:04:20.280Z,5.50
2018-09-30T13:06:48.804Z,2.70
2018-09-30T13:09:17.408Z,2.67
2018-09-30T13:11:46.139Z,2.70
2018-09-30T13:14:14.651Z,2.60
2018-09-30T13:16:43.280Z,2.50
2018-09-30T13:19:12.008Z,2.77
2018-09-30T13:21:40.605Z,3.07
2018-09-30T13:24:09.244Z,2.60
2018-09-30T13:26:37.964Z,2.40
2018-09-30T13:29:06.480Z,2.30
2018-09-30T13:31:34.873Z,2.30
2018-09-30T13:34:03.497Z,2.60
2018-09-30T13:36:32.217Z,2.20
2018-09-30T13:39:00.713Z,2.40
2018-09-30T13:41:29.459Z,2.57
2018-09-30T13:43:58.251Z,2.50
2018-09-30T13:46:26.791Z,2.20
2018-09-30T13:48:55.407Z,2.33
2018-09-30T13:51:24.174Z,2.30
2018-09-30T13:53:52.646Z,2.60
2018-09-30T13:56:21.105Z,2.83
2018-09-30T13:58:49.511Z,2.73
2018-09-30T14:01:18.164Z,2.33
2018-09-30T14:03:46.676Z,2.47
2018-09-30T14:06:15.287Z,2.90
2018-09-30T14:08:44.012Z,2.83
2018-09-30T14:11:12.527Z,2.77
2018-09-30T14:13:41.444Z,2.40
2018-09-30T14:16:09.987Z,3.00
2018-09-30T14:18:38.410Z,2.43
2018-09-30T14:21:06.783Z,2.90
2018-09-30T14:23:35.383Z,2.60
2018-09-30T14:26:03.770Z,3.40
2018-09-30T14:28:32.448Z,3.10
2018-09-30T14:31:00.926Z,2.87
2018-09-30T14:33:29.324Z,3.13
2018-09-30T14:35:57.930Z,2.87
2018-09-30T14:38:26.668Z,2.80
2018-09-30T14:40:55.404Z,3.10
2018-09-30T14:43:23.885Z,2.93
2018-09-30T14:45:52.500Z,2.63
2018-09-30T14:48:21.077Z,2.67
2018-09-30T14:50:49.716Z,2.87
2018-09-30T14:53:18.204Z,3.10
2018-09-30T14:55:46.596Z,2.87
2018-09-30T14:58:14.996Z,3.30
2018-09-30T15:00:43.635Z,2.80
2018-09-30T15:03:12.341Z,3.30
2018-09-30T15:05:40.843Z,3.40
2018-09-30T15:08:09.243Z,3.00
2018-09-30T15:10:37.895Z,3.00
2018-09-30T15:13:06.379Z,3.27
2018-09-30T15:15:34.842Z,3.23
2018-09-30T15:18:03.501Z,2.87
2018-09-30T15:20:32.240Z,3.40
2018-09-30T15:23:00.719Z,2.90
2018-09-30T15:25:29.140Z,2.67
2018-09-30T15:27:57.779Z,3.20
2018-09-30T15:30:26.262Z,2.73
2018-09-30T15:32:54.647Z,2.80
2018-09-30T15:35:23.276Z,2.90
2018-09-30T15:37:51.985Z,2.73
2018-09-30T15:40:20.698Z,2.80
2018-09-30T15:42:49.534Z,2.80
2018-09-30T15:45:18.187Z,3.03
2018-09-30T15:47:46.683Z,3.10
2018-09-30T15:50:15.291Z,2.80
2018-09-30T15:52:44.022Z,3.53
2018-09-30T15:55:12.510Z,2.73
2018-09-30T15:57:40.891Z,3.90
2018-09-30T16:00:09.287Z,3.40
2018-09-30T16:02:37.988Z,3.03
2018-09-30T16:05:06.466Z,3.43
2018-09-30T16:07:34.890Z,3.70
2018-09-30T16:10:03.509Z,3.50
2018-09-30T16:12:32.103Z,2.80
2018-09-30T16:15:00.500Z,3.00
2018-09-30T16:17:28.890Z,3.13
2018-09-30T16:19:57.274Z,2.97
2018-09-30T16:22:25.908Z,3.53
2018-09-30T16:24:54.612Z,2.50
2018-09-30T16:27:23.317Z,2.80
2018-09-30T16:29:52.024Z,3.20
2018-09-30T16:32:20.514Z,3.43
2018-09-30T16:34:48.948Z,3.07
2018-09-30T16:37:17.550Z,2.60
2018-09-30T16:39:46.267Z,3.20
2018-09-30T16:42:14.803Z,3.00
2018-09-30T16:44:43.187Z,3.17
2018-09-30T16:47:11.591Z,4.20
2018-09-30T16:49:40.194Z,4.03
2018-09-30T16:52:08.775Z,3.37
2018-09-30T16:54:37.400Z,2.93
2018-09-30T16:57:06.100Z,2.70
2018-09-30T16:59:34.588Z,2.77
2018-09-30T17:02:02.992Z,2.77
2018-09-30T17:04:31.600Z,3.30
2018-09-30T17:07:00.095Z,2.80
2018-09-30T17:09:28.478Z,2.90
2018-09-30T17:11:57.213Z,2.60
2018-09-30T17:14:26.000Z,3.20
2018-09-30T17:16:54.514Z,2.93
2018-09-30T17:19:22.963Z,2.97
2018-09-30T17:21:51.375Z,3.50
2018-09-30T17:24:19.998Z,3.20
2018-09-30T17:26:48.738Z,2.83
2018-09-30T17:29:17.504Z,3.10
2018-09-30T17:31:46.236Z,2.93
2018-09-30T17:34:14.779Z,2.77
2018-09-30T17:36:43.159Z,3.17
2018-09-30T17:39:11.865Z,3.10
2018-09-30T17:41:40.645Z,3.40
2018-09-30T17:44:09.128Z,3.73
2018-09-30T17:46:37.543Z,3.50
2018-09-30T17:49:06.378Z,3.60
2018-09-30T17:51:35.083Z,3.33
2018-09-30T17:54:03.707Z,3.27
2018-09-30T17:56:32.413Z,3.33
2018-09-30T17:59:00.887Z,3.10
2018-09-30T18:01:29.488Z,3.00
2018-09-30T18:03:58.804Z,3.70
2018-09-30T18:06:27.136Z,3.47
2018-09-30T18:08:55.765Z,3.67
2018-09-30T18:11:29.563Z,3.13
2018-09-30T18:13:58.064Z,3.03
2018-09-30T18:16:26.683Z,3.00
2018-09-30T18:18:55.396Z,3.77
2018-09-30T18:21:24.056Z,3.80
2018-09-30T18:23:52.857Z,3.70
2018-09-30T18:26:21.439Z,3.70
2018-09-30T18:28:53.546Z,4.40
2018-09-30T18:31:32.948Z,4.07
2018-09-30T18:34:02.802Z,4.47
2018-09-30T18:36:32.354Z,3.53
2018-09-30T18:39:00.891Z,3.80
2018-09-30T18:41:29.434Z,3.80
2018-09-30T18:43:58.131Z,3.70
2018-09-30T18:46:28.892Z,3.50
2018-09-30T18:49:01.529Z,3.53
2018-09-30T18:51:36.365Z,4.57
2018-09-30T18:54:06.978Z,3.63
2018-09-30T18:56:35.496Z,3.80
2018-09-30T18:59:10.936Z,3.60
2018-09-30T19:01:40.732Z,4.37
2018-09-30T19:04:09.982Z,4.10
2018-09-30T19:06:39.560Z,4.10
2018-09-30T19:09:08.861Z,3.90
2018-09-30T19:11:38.132Z,4.10
2018-09-30T19:14:09.384Z,3.70
2018-09-30T19:16:38.314Z,3.83
2018-09-30T19:19:08.091Z,3.93
2018-09-30T19:21:39.239Z,3.47
2018-09-30T19:24:07.720Z,4.13
2018-09-30T19:26:36.350Z,3.63
2018-09-30T19:29:05.147Z,4.47
2018-09-30T19:31:33.717Z,4.33
2018-09-30T19:34:02.097Z,3.60
2018-09-30T19:36:31.555Z,4.67
2018-09-30T19:39:00.450Z,4.67
2018-09-30T19:41:28.867Z,4.30
2018-09-30T19:43:57.277Z,4.13
2018-09-30T19:46:25.750Z,4.53
2018-09-30T19:48:54.316Z,4.73
2018-09-30T19:51:22.744Z,4.20
2018-09-30T19:53:51.198Z,4.47
2018-09-30T19:56:19.595Z,4.77
2018-09-30T19:58:48.072Z,4.90
2018-09-30T20:01:16.498Z,4.83
2018-09-30T20:03:44.873Z,4.40
2018-09-30T20:06:13.311Z,5.00
2018-09-30T20:08:41.734Z,4.80
2018-09-30T20:11:10.159Z,4.73
2018-09-30T20:13:39.123Z,5.30
2018-09-30T20:16:07.602Z,4.60
2018-09-30T20:18:36.003Z,4.70
2018-09-30T20:21:04.423Z,4.23
2018-09-30T20:23:32.882Z,5.07
2018-09-30T20:26:15.709Z,5.03
2018-09-30T20:28:44.258Z,5.30
2018-09-30T20:31:12.613Z,5.10
2018-09-30T20:33:41.010Z,4.73
2018-09-30T20:36:11.450Z,5.07
2018-09-30T20:38:40.440Z,6.30
2018-09-30T20:41:08.839Z,5.07
2018-09-30T20:43:37.439Z,4.87
2018-09-30T20:46:12.074Z,4.70
2018-09-30T20:48:40.634Z,4.90
2018-09-30T20:51:08.991Z,5.30
2018-09-30T20:53:37.798Z,4.90
2018-09-30T20:56:06.203Z,5.03
2018-09-30T20:58:34.579Z,5.00
2018-09-30T21:01:02.986Z,4.70
2018-09-30T21:03:31.387Z,4.90
2018-09-30T21:06:07.134Z,5.00
2018-09-30T21:08:35.515Z,4.63
2018-09-30T21:11:03.918Z,4.47
2018-09-30T21:13:32.327Z,5.33
2018-09-30T21:16:01.335Z,4.90
2018-09-30T21:18:30.652Z,5.27
2018-09-30T21:20:59.461Z,4.73
2018-09-30T21:23:28.003Z,4.80
2018-09-30T21:25:57.081Z,5.23
2018-09-30T21:28:26.040Z,5.27
2018-09-30T21:30:54.666Z,5.10
2018-09-30T21:33:23.767Z,5.30
2018-09-30T21:35:52.163Z,5.47
2018-09-30T21:38:20.562Z,5.37
2018-09-30T21:40:48.946Z,5.27
2018-09-30T21:43:18.183Z,5.17
2018-09-30T21:45:46.607Z,5.00
2018-09-30T21:48:16.338Z,4.63
2018-09-30T21:50:44.738Z,4.57
2018-09-30T21:53:14.061Z,4.67
2018-09-30T21:55:42.439Z,4.70
2018-09-30T21:58:11.090Z,5.20
2018-09-30T22:00:40.868Z,4.97
2018-09-30T22:03:11.515Z,5.17
2018-09-30T22:05:39.878Z,5.00
2018-09-30T22:08:09.314Z,5.37
2018-09-30T22:10:38.822Z,6.07
2018-09-30T22:13:07.377Z,4.73
2018-09-30T22:15:35.798Z,5.10
2018-09-30T22:18:04.352Z,5.40
2018-09-30T22:20:32.748Z,5.83
2018-09-30T22:23:01.132Z,5.07
2018-09-30T22:25:29.536Z,5.77
2018-09-30T22:27:57.931Z,4.97
2018-09-30T22:30:26.364Z,5.57
2018-09-30T22:32:54.789Z,5.83
2018-09-30T22:35:23.171Z,6.30
2018-09-30T22:37:51.783Z,6.37
2018-09-30T22:40:20.590Z,5.70
2018-09-30T22:42:48.963Z,5.60
2018-09-30T22:45:17.352Z,5.53
2018-09-30T22:47:45.744Z,5.43
2018-09-30T22:50:14.127Z,5.53
2018-09-30T22:52:42.548Z,5.20
2018-09-30T22:55:10.931Z,5.70
2018-09-30T22:57:39.540Z,5.17
2018-09-30T23:00:08.087Z,5.83
2018-09-30T23:02:36.483Z,5.60
2018-09-30T23:05:05.227Z,5.37
2018-09-30T23:07:33.648Z,4.87
2018-09-30T23:10:02.041Z,5.27
2018-09-30T23:12:30.428Z,5.87
2018-09-30T23:14:58.827Z,5.33
2018-09-30T23:17:27.239Z,5.90
2018-09-30T23:19:55.864Z,5.00
2018-09-30T23:22:24.351Z,5.17
2018-09-30T23:24:52.743Z,5.20
2018-09-30T23:27:21.161Z,5.23
2018-09-30T23:29:49.563Z,5.80
2018-09-30T23:32:17.959Z,5.47
2018-09-30T23:34:46.358Z,5.47
2018-09-30T23:37:14.771Z,5.70
2018-09-30T23:39:43.179Z,5.67
2018-09-30T23:42:11.564Z,6.60
2018-09-30T23:44:40.016Z,5.67
2018-09-30T23:47:08.611Z,5.43
2018-09-30T23:49:37.096Z,6.27
2018-09-30T23:52:05.503Z,5.53
2018-09-30T23:54:33.884Z,6.03
2018-09-30T23:57:02.297Z,6.10
2018-09-30T23:59:30.663Z,6.20
